createdAt,value
2018-04-08T00:00:21.932Z,1003.03
2018-04-08T00:00:48.083Z,1003.02
2018-04-08T00:01:14.225Z,1003.03
2018-04-08T00:01:40.358Z,1003.05
2018-04-08T00:02:06.500Z,1003.06
2018-04-08T00:02:32.656Z,1003.02
2018-04-08T00:02:58.793Z,1003.07
2018-04-08T00:03:24.929Z,1003.04
2018-04-08T00:03:51.067Z,1003.02
2018-04-08T00:04:17.213Z,1003.05
2018-04-08T00:04:43.352Z,1003.05
2018-04-08T00:05:09.490Z,1003.06
2018-04-08T00:05:35.636Z,1003.06
2018-04-08T00:06:01.770Z,1003.07
2018-04-08T00:06:27.913Z,1003.05
2018-04-08T00:06:54.052Z,1003.06
2018-04-08T00:07:20.189Z,1003.07
2018-04-08T00:07:46.349Z,1003.05
2018-04-08T00:08:12.479Z,1003.05
2018-04-08T00:08:38.649Z,1003.05
2018-04-08T00:09:04.795Z,1003.03
2018-04-08T00:09:30.945Z,1003.03
2018-04-08T00:09:57.084Z,1003.04
2018-04-08T00:10:23.230Z,1003.04
2018-04-08T00:10:49.363Z,1003.02
2018-04-08T00:11:15.533Z,1003.04
2018-04-08T00:11:41.666Z,1003.03
2018-04-08T00:12:07.810Z,1003.02
2018-04-08T00:12:33.945Z,1003
2018-04-08T00:13:00.092Z,1003.01
2018-04-08T00:13:26.233Z,1003.02
2018-04-08T00:13:52.373Z,1003.02
2018-04-08T00:14:18.509Z,1003
2018-04-08T00:14:44.659Z,1003.03
2018-04-08T00:15:10.845Z,1003.03
2018-04-08T00:15:36.977Z,1002.99
2018-04-08T00:16:03.114Z,1002.98
2018-04-08T00:16:29.256Z,1003
2018-04-08T00:16:55.403Z,1002.99
2018-04-08T00:17:21.559Z,1002.99
2018-04-08T00:17:47.701Z,1002.96
2018-04-08T00:18:13.835Z,1002.94
2018-04-08T00:18:39.978Z,1002.97
2018-04-08T00:19:06.118Z,1002.93
2018-04-08T00:19:32.258Z,1002.97
2018-04-08T00:19:58.394Z,1002.97
2018-04-08T00:20:24.540Z,1002.95
2018-04-08T00:20:50.680Z,1002.96
2018-04-08T00:21:16.848Z,1002.97
2018-04-08T00:21:42.993Z,1002.94
2018-04-08T00:22:09.129Z,1002.94
2018-04-08T00:22:35.269Z,1002.94
2018-04-08T00:23:01.432Z,1002.94
2018-04-08T00:23:27.571Z,1002.94
2018-04-08T00:23:53.708Z,1002.93
2018-04-08T00:24:19.846Z,1002.95
2018-04-08T00:24:46.014Z,1002.92
2018-04-08T00:25:12.148Z,1002.89
2018-04-08T00:25:38.324Z,1002.92
2018-04-08T00:26:04.464Z,1002.9
2018-04-08T00:26:30.604Z,1002.89
2018-04-08T00:26:56.738Z,1002.88
2018-04-08T00:27:22.887Z,1002.89
2018-04-08T00:27:49.022Z,1002.84
2018-04-08T00:28:15.166Z,1002.85
2018-04-08T00:28:41.309Z,1002.84
2018-04-08T00:29:07.456Z,1002.85
2018-04-08T00:29:33.585Z,1002.82
2018-04-08T00:29:59.745Z,1002.86
2018-04-08T00:30:25.914Z,1002.82
2018-04-08T00:30:52.058Z,1002.81
2018-04-08T00:31:18.195Z,1002.83
2018-04-08T00:31:44.359Z,1002.84
2018-04-08T00:32:10.496Z,1002.84
2018-04-08T00:32:36.639Z,1002.82
2018-04-08T00:33:02.780Z,1002.79
2018-04-08T00:33:28.920Z,1002.84
2018-04-08T00:33:55.059Z,1002.81
2018-04-08T00:34:21.194Z,1002.81
2018-04-08T00:34:47.334Z,1002.78
2018-04-08T00:35:13.467Z,1002.8
2018-04-08T00:35:39.637Z,1002.75
2018-04-08T00:36:05.778Z,1002.76
2018-04-08T00:36:31.911Z,1002.77
2018-04-08T00:36:58.045Z,1002.79
2018-04-08T00:37:24.186Z,1002.8
2018-04-08T00:37:50.326Z,1002.79
2018-04-08T00:38:16.468Z,1002.79
2018-04-08T00:38:42.602Z,1002.78
2018-04-08T00:39:08.744Z,1002.77
2018-04-08T00:39:34.885Z,1002.8
2018-04-08T00:40:01.019Z,1002.8
2018-04-08T00:40:27.156Z,1002.79
2018-04-08T00:40:53.300Z,1002.78
2018-04-08T00:41:19.434Z,1002.77
2018-04-08T00:41:45.575Z,1002.79
2018-04-08T00:42:11.714Z,1002.78
2018-04-08T00:42:37.855Z,1002.75
2018-04-08T00:43:03.989Z,1002.77
2018-04-08T00:43:30.159Z,1002.74
2018-04-08T00:43:56.293Z,1002.76
2018-04-08T00:44:22.436Z,1002.76
2018-04-08T00:44:48.581Z,1002.78
2018-04-08T00:45:14.718Z,1002.8
2018-04-08T00:45:40.858Z,1002.76
2018-04-08T00:46:07.007Z,1002.79
2018-04-08T00:46:33.149Z,1002.77
2018-04-08T00:46:59.286Z,1002.78
2018-04-08T00:47:25.431Z,1002.76
2018-04-08T00:47:51.601Z,1002.75
2018-04-08T00:48:17.734Z,1002.79
2018-04-08T00:48:43.878Z,1002.73
2018-04-08T00:49:10.025Z,1002.75
2018-04-08T00:49:36.157Z,1002.7
2018-04-08T00:50:02.301Z,1002.74
2018-04-08T00:50:28.435Z,1002.75
2018-04-08T00:50:54.576Z,1002.76
2018-04-08T00:51:20.711Z,1002.7
2018-04-08T00:51:46.853Z,1002.72
2018-04-08T00:52:12.997Z,1002.71
2018-04-08T00:52:39.129Z,1002.71
2018-04-08T00:53:05.270Z,1002.71
2018-04-08T00:53:31.413Z,1002.7
2018-04-08T00:53:57.547Z,1002.68
2018-04-08T00:54:23.688Z,1002.71
2018-04-08T00:54:49.828Z,1002.68
2018-04-08T00:55:15.961Z,1002.66
2018-04-08T00:55:42.106Z,1002.65
2018-04-08T00:56:08.241Z,1002.69
2018-04-08T00:56:34.385Z,1002.71
2018-04-08T00:57:00.521Z,1002.68
2018-04-08T00:57:26.662Z,1002.66
2018-04-08T00:57:52.795Z,1002.66
2018-04-08T00:58:18.965Z,1002.69
2018-04-08T00:58:45.100Z,1002.69
2018-04-08T00:59:11.239Z,1002.65
2018-04-08T00:59:37.382Z,1002.64
2018-04-08T01:00:03.542Z,1002.68
2018-04-08T01:00:29.705Z,1002.67
2018-04-08T01:00:55.840Z,1002.69
2018-04-08T01:01:21.978Z,1002.66
2018-04-08T01:01:48.118Z,1002.71
2018-04-08T01:02:14.257Z,1002.67
2018-04-08T01:02:40.398Z,1002.67
2018-04-08T01:03:06.546Z,1002.69
2018-04-08T01:03:32.675Z,1002.68
2018-04-08T01:03:58.843Z,1002.66
2018-04-08T01:04:24.981Z,1002.7
2018-04-08T01:04:51.117Z,1002.65
2018-04-08T01:05:17.264Z,1002.66
2018-04-08T01:05:43.419Z,1002.66
2018-04-08T01:06:09.563Z,1002.69
2018-04-08T01:06:35.705Z,1002.66
2018-04-08T01:07:01.844Z,1002.69
2018-04-08T01:07:27.986Z,1002.67
2018-04-08T01:07:54.125Z,1002.64
2018-04-08T01:08:20.268Z,1002.67
2018-04-08T01:08:46.405Z,1002.66
2018-04-08T01:09:12.543Z,1002.65
2018-04-08T01:09:38.683Z,1002.66
2018-04-08T01:10:04.823Z,1002.62
2018-04-08T01:10:30.959Z,1002.64
2018-04-08T01:10:57.104Z,1002.62
2018-04-08T01:11:23.246Z,1002.6
2018-04-08T01:11:49.387Z,1002.6
2018-04-08T01:12:15.547Z,1002.6
2018-04-08T01:12:41.694Z,1002.6
2018-04-08T01:13:07.831Z,1002.58
2018-04-08T01:13:33.971Z,1002.59
2018-04-08T01:14:00.143Z,1002.61
2018-04-08T01:14:26.282Z,1002.55
2018-04-08T01:14:52.443Z,1002.59
2018-04-08T01:15:18.579Z,1002.54
2018-04-08T01:15:44.723Z,1002.57
2018-04-08T01:16:10.865Z,1002.57
2018-04-08T01:16:37.008Z,1002.54
2018-04-08T01:17:03.147Z,1002.53
2018-04-08T01:17:29.306Z,1002.53
2018-04-08T01:17:55.451Z,1002.56
2018-04-08T01:18:21.584Z,1002.57
2018-04-08T01:18:47.749Z,1002.54
2018-04-08T01:19:13.889Z,1002.57
2018-04-08T01:19:40.040Z,1002.52
2018-04-08T01:20:06.178Z,1002.51
2018-04-08T01:20:32.318Z,1002.54
2018-04-08T01:20:58.461Z,1002.53
2018-04-08T01:21:24.597Z,1002.54
2018-04-08T01:21:50.738Z,1002.53
2018-04-08T01:22:16.895Z,1002.5
2018-04-08T01:22:43.038Z,1002.5
2018-04-08T01:23:09.181Z,1002.54
2018-04-08T01:23:35.313Z,1002.51
2018-04-08T01:24:01.450Z,1002.5
2018-04-08T01:24:27.595Z,1002.54
2018-04-08T01:24:53.730Z,1002.53
2018-04-08T01:25:19.870Z,1002.51
2018-04-08T01:25:46.006Z,1002.52
2018-04-08T01:26:12.146Z,1002.53
2018-04-08T01:26:38.280Z,1002.54
2018-04-08T01:27:04.424Z,1002.51
2018-04-08T01:27:30.559Z,1002.56
2018-04-08T01:27:56.704Z,1002.51
2018-04-08T01:28:22.839Z,1002.52
2018-04-08T01:28:48.981Z,1002.51
2018-04-08T01:29:15.124Z,1002.51
2018-04-08T01:29:41.263Z,1002.52
2018-04-08T01:30:07.420Z,1002.5
2018-04-08T01:30:33.566Z,1002.5
2018-04-08T01:30:59.709Z,1002.5
2018-04-08T01:31:25.846Z,1002.51
2018-04-08T01:31:51.985Z,1002.48
2018-04-08T01:32:18.127Z,1002.53
2018-04-08T01:32:44.267Z,1002.47
2018-04-08T01:33:10.430Z,1002.49
2018-04-08T01:33:36.578Z,1002.51
2018-04-08T01:34:02.715Z,1002.47
2018-04-08T01:34:28.848Z,1002.49
2018-04-08T01:34:55.024Z,1002.47
2018-04-08T01:35:21.159Z,1002.44
2018-04-08T01:35:47.303Z,1002.49
2018-04-08T01:36:13.434Z,1002.48
2018-04-08T01:36:39.598Z,1002.46
2018-04-08T01:37:05.737Z,1002.5
2018-04-08T01:37:31.884Z,1002.47
2018-04-08T01:37:58.023Z,1002.47
2018-04-08T01:38:24.162Z,1002.49
2018-04-08T01:38:50.300Z,1002.49
2018-04-08T01:39:16.442Z,1002.47
2018-04-08T01:39:42.575Z,1002.51
2018-04-08T01:40:08.718Z,1002.49
2018-04-08T01:40:34.868Z,1002.53
2018-04-08T01:41:00.995Z,1002.49
2018-04-08T01:41:27.130Z,1002.52
2018-04-08T01:41:53.298Z,1002.5
2018-04-08T01:42:19.438Z,1002.51
2018-04-08T01:42:45.574Z,1002.49
2018-04-08T01:43:11.708Z,1002.52
2018-04-08T01:43:37.847Z,1002.51
2018-04-08T01:44:03.984Z,1002.5
2018-04-08T01:44:30.122Z,1002.51
2018-04-08T01:44:56.259Z,1002.47
2018-04-08T01:45:22.400Z,1002.52
2018-04-08T01:45:48.539Z,1002.46
2018-04-08T01:46:14.700Z,1002.47
2018-04-08T01:46:40.835Z,1002.48
2018-04-08T01:47:06.972Z,1002.47
2018-04-08T01:47:33.115Z,1002.48
2018-04-08T01:47:59.254Z,1002.49
2018-04-08T01:48:25.389Z,1002.46
2018-04-08T01:48:51.535Z,1002.48
2018-04-08T01:49:17.728Z,1002.47
2018-04-08T01:49:43.866Z,1002.46
2018-04-08T01:50:10.006Z,1002.46
2018-04-08T01:50:36.143Z,1002.48
2018-04-08T01:51:02.288Z,1002.48
2018-04-08T01:51:28.450Z,1002.49
2018-04-08T01:51:54.588Z,1002.46
2018-04-08T01:52:20.724Z,1002.48
2018-04-08T01:52:46.859Z,1002.47
2018-04-08T01:53:12.997Z,1002.46
2018-04-08T01:53:39.133Z,1002.47
2018-04-08T01:54:05.280Z,1002.43
2018-04-08T01:54:31.416Z,1002.44
2018-04-08T01:54:57.559Z,1002.43
2018-04-08T01:55:23.697Z,1002.45
2018-04-08T01:55:49.830Z,1002.43
2018-04-08T01:56:15.963Z,1002.42
2018-04-08T01:56:42.105Z,1002.44
2018-04-08T01:57:08.250Z,1002.46
2018-04-08T01:57:34.390Z,1002.42
2018-04-08T01:58:00.530Z,1002.46
2018-04-08T01:58:26.670Z,1002.42
2018-04-08T01:58:52.806Z,1002.47
2018-04-08T01:59:18.977Z,1002.43
2018-04-08T01:59:45.119Z,1002.43
2018-04-08T02:00:11.260Z,1002.47
2018-04-08T02:00:37.391Z,1002.48
2018-04-08T02:01:03.534Z,1002.49
2018-04-08T02:01:29.676Z,1002.44
2018-04-08T02:01:55.816Z,1002.46
2018-04-08T02:02:21.953Z,1002.46
2018-04-08T02:02:48.089Z,1002.42
2018-04-08T02:03:14.259Z,1002.47
2018-04-08T02:03:40.396Z,1002.42
2018-04-08T02:04:06.568Z,1002.46
2018-04-08T02:04:32.707Z,1002.43
2018-04-08T02:04:58.871Z,1002.45
2018-04-08T02:05:25.009Z,1002.48
2018-04-08T02:05:51.149Z,1002.45
2018-04-08T02:06:17.324Z,1002.48
2018-04-08T02:06:43.481Z,1002.45
2018-04-08T02:07:09.617Z,1002.44
2018-04-08T02:07:35.784Z,1002.44
2018-04-08T02:08:01.920Z,1002.46
2018-04-08T02:08:28.053Z,1002.42
2018-04-08T02:08:54.192Z,1002.46
2018-04-08T02:09:20.330Z,1002.46
2018-04-08T02:09:46.469Z,1002.46
2018-04-08T02:10:12.615Z,1002.45
2018-04-08T02:10:38.764Z,1002.44
2018-04-08T02:11:04.888Z,1002.47
2018-04-08T02:11:31.030Z,1002.45
2018-04-08T02:11:57.161Z,1002.44
2018-04-08T02:12:23.304Z,1002.46
2018-04-08T02:12:49.440Z,1002.47
2018-04-08T02:13:15.586Z,1002.48
2018-04-08T02:13:41.721Z,1002.46
2018-04-08T02:14:07.862Z,1002.45
2018-04-08T02:14:34.006Z,1002.45
2018-04-08T02:15:00.147Z,1002.48
2018-04-08T02:15:26.281Z,1002.42
2018-04-08T02:15:52.419Z,1002.44
2018-04-08T02:16:18.559Z,1002.43
2018-04-08T02:16:44.700Z,1002.4
2018-04-08T02:17:10.837Z,1002.41
2018-04-08T02:17:36.971Z,1002.41
2018-04-08T02:18:03.108Z,1002.4
2018-04-08T02:18:29.276Z,1002.44
2018-04-08T02:18:55.417Z,1002.43
2018-04-08T02:19:21.560Z,1002.43
2018-04-08T02:19:47.699Z,1002.44
2018-04-08T02:20:13.834Z,1002.39
2018-04-08T02:20:39.972Z,1002.41
2018-04-08T02:21:06.140Z,1002.4
2018-04-08T02:21:32.275Z,1002.41
2018-04-08T02:21:58.415Z,1002.43
2018-04-08T02:22:24.559Z,1002.42
2018-04-08T02:22:50.697Z,1002.41
2018-04-08T02:23:16.866Z,1002.39
2018-04-08T02:23:43.009Z,1002.41
2018-04-08T02:24:09.144Z,1002.39
2018-04-08T02:24:35.281Z,1002.38
2018-04-08T02:25:01.419Z,1002.41
2018-04-08T02:25:27.559Z,1002.41
2018-04-08T02:25:53.695Z,1002.41
2018-04-08T02:26:19.837Z,1002.36
2018-04-08T02:26:45.977Z,1002.37
2018-04-08T02:27:12.137Z,1002.38
2018-04-08T02:27:38.278Z,1002.37
2018-04-08T02:28:04.441Z,1002.36
2018-04-08T02:28:30.577Z,1002.39
2018-04-08T02:28:56.722Z,1002.37
2018-04-08T02:29:22.853Z,1002.38
2018-04-08T02:29:48.997Z,1002.43
2018-04-08T02:30:15.134Z,1002.4
2018-04-08T02:30:41.280Z,1002.4
2018-04-08T02:31:07.418Z,1002.39
2018-04-08T02:31:33.555Z,1002.42
2018-04-08T02:31:59.691Z,1002.41
2018-04-08T02:32:25.854Z,1002.37
2018-04-08T02:32:51.993Z,1002.42
2018-04-08T02:33:18.134Z,1002.41
2018-04-08T02:33:44.275Z,1002.42
2018-04-08T02:34:10.410Z,1002.44
2018-04-08T02:34:36.572Z,1002.39
2018-04-08T02:35:02.744Z,1002.4
2018-04-08T02:35:28.899Z,1002.4
2018-04-08T02:35:55.032Z,1002.38
2018-04-08T02:36:21.196Z,1002.36
2018-04-08T02:36:47.363Z,1002.35
2018-04-08T02:37:13.545Z,1002.43
2018-04-08T02:37:39.684Z,1002.36
2018-04-08T02:38:05.827Z,1002.39
2018-04-08T02:38:31.962Z,1002.37
2018-04-08T02:38:58.097Z,1002.35
2018-04-08T02:39:24.236Z,1002.34
2018-04-08T02:39:50.399Z,1002.32
2018-04-08T02:40:16.539Z,1002.36
2018-04-08T02:40:42.677Z,1002.38
2018-04-08T02:41:08.822Z,1002.39
2018-04-08T02:41:34.957Z,1002.35
2018-04-08T02:42:01.097Z,1002.36
2018-04-08T02:42:27.238Z,1002.37
2018-04-08T02:42:53.378Z,1002.37
2018-04-08T02:43:19.548Z,1002.36
2018-04-08T02:43:45.694Z,1002.38
2018-04-08T02:44:11.849Z,1002.35
2018-04-08T02:44:37.991Z,1002.37
2018-04-08T02:45:04.139Z,1002.41
2018-04-08T02:45:30.302Z,1002.37
2018-04-08T02:45:56.438Z,1002.4
2018-04-08T02:46:22.577Z,1002.38
2018-04-08T02:46:48.744Z,1002.37
2018-04-08T02:47:14.904Z,1002.37
2018-04-08T02:47:41.050Z,1002.38
2018-04-08T02:48:07.184Z,1002.37
2018-04-08T02:48:33.320Z,1002.36
2018-04-08T02:48:59.484Z,1002.38
2018-04-08T02:49:25.656Z,1002.36
2018-04-08T02:49:51.764Z,1002.35
2018-04-08T02:50:17.924Z,1002.35
2018-04-08T02:50:44.067Z,1002.35
2018-04-08T02:51:10.203Z,1002.38
2018-04-08T02:51:36.389Z,1002.36
2018-04-08T02:52:02.525Z,1002.31
2018-04-08T02:52:28.679Z,1002.35
2018-04-08T02:52:54.821Z,1002.34
2018-04-08T02:53:20.960Z,1002.35
2018-04-08T02:53:47.090Z,1002.32
2018-04-08T02:54:13.256Z,1002.31
2018-04-08T02:54:39.394Z,1002.33
2018-04-08T02:55:05.539Z,1002.33
2018-04-08T02:55:31.680Z,1002.31
2018-04-08T02:55:57.816Z,1002.28
2018-04-08T02:56:23.977Z,1002.33
2018-04-08T02:56:50.116Z,1002.26
2018-04-08T02:57:16.251Z,1002.27
2018-04-08T02:57:42.413Z,1002.28
2018-04-08T02:58:08.555Z,1002.28
2018-04-08T02:58:34.689Z,1002.26
2018-04-08T02:59:00.827Z,1002.27
2018-04-08T02:59:26.975Z,1002.3
2018-04-08T02:59:53.111Z,1002.29
2018-04-08T03:00:19.248Z,1002.3
2018-04-08T03:00:45.396Z,1002.3
2018-04-08T03:01:11.532Z,1002.28
2018-04-08T03:01:37.672Z,1002.32
2018-04-08T03:02:03.813Z,1002.3
2018-04-08T03:02:29.944Z,1002.29
2018-04-08T03:02:56.095Z,1002.28
2018-04-08T03:03:22.228Z,1002.29
2018-04-08T03:03:48.364Z,1002.28
2018-04-08T03:04:14.543Z,1002.28
2018-04-08T03:04:40.708Z,1002.28
2018-04-08T03:05:06.842Z,1002.27
2018-04-08T03:05:32.977Z,1002.29
2018-04-08T03:05:59.115Z,1002.3
2018-04-08T03:06:25.260Z,1002.31
2018-04-08T03:06:51.398Z,1002.31
2018-04-08T03:07:17.533Z,1002.31
2018-04-08T03:07:43.678Z,1002.35
2018-04-08T03:08:09.815Z,1002.3
2018-04-08T03:08:35.951Z,1002.29
2018-04-08T03:09:02.089Z,1002.32
2018-04-08T03:09:28.225Z,1002.32
2018-04-08T03:09:54.391Z,1002.33
2018-04-08T03:10:20.527Z,1002.35
2018-04-08T03:10:46.665Z,1002.32
2018-04-08T03:11:12.807Z,1002.34
2018-04-08T03:11:38.971Z,1002.36
2018-04-08T03:12:05.106Z,1002.31
2018-04-08T03:12:31.246Z,1002.33
2018-04-08T03:12:57.386Z,1002.32
2018-04-08T03:13:23.527Z,1002.32
2018-04-08T03:13:49.666Z,1002.35
2018-04-08T03:14:15.807Z,1002.27
2018-04-08T03:14:41.946Z,1002.31
2018-04-08T03:15:08.104Z,1002.33
2018-04-08T03:15:34.239Z,1002.32
2018-04-08T03:16:00.376Z,1002.28
2018-04-08T03:16:26.522Z,1002.28
2018-04-08T03:16:52.657Z,1002.29
2018-04-08T03:17:18.795Z,1002.29
2018-04-08T03:17:44.937Z,1002.28
2018-04-08T03:18:11.075Z,1002.28
2018-04-08T03:18:37.213Z,1002.29
2018-04-08T03:19:03.355Z,1002.26
2018-04-08T03:19:29.491Z,1002.27
2018-04-08T03:19:55.631Z,1002.26
2018-04-08T03:20:21.770Z,1002.27
2018-04-08T03:20:47.914Z,1002.24
2018-04-08T03:21:14.048Z,1002.24
2018-04-08T03:21:40.199Z,1002.21
2018-04-08T03:22:06.335Z,1002.21
2018-04-08T03:22:32.481Z,1002.21
2018-04-08T03:22:58.615Z,1002.2
2018-04-08T03:23:24.754Z,1002.21
2018-04-08T03:23:50.896Z,1002.15
2018-04-08T03:24:17.037Z,1002.21
2018-04-08T03:24:43.176Z,1002.15
2018-04-08T03:25:09.309Z,1002.19
2018-04-08T03:25:35.478Z,1002.16
2018-04-08T03:26:01.614Z,1002.17
2018-04-08T03:26:27.750Z,1002.19
2018-04-08T03:26:53.889Z,1002.19
2018-04-08T03:27:20.057Z,1002.21
2018-04-08T03:27:46.216Z,1002.17
2018-04-08T03:28:12.356Z,1002.19
2018-04-08T03:28:38.492Z,1002.18
2018-04-08T03:29:04.637Z,1002.15
2018-04-08T03:29:30.782Z,1002.17
2018-04-08T03:29:56.940Z,1002.19
2018-04-08T03:30:23.109Z,1002.2
2018-04-08T03:30:49.242Z,1002.17
2018-04-08T03:31:15.378Z,1002.14
2018-04-08T03:31:41.520Z,1002.18
2018-04-08T03:32:07.660Z,1002.17
2018-04-08T03:32:33.871Z,1002.18
2018-04-08T03:32:59.963Z,1002.17
2018-04-08T03:33:26.124Z,1002.18
2018-04-08T03:33:52.294Z,1002.22
2018-04-08T03:34:18.430Z,1002.21
2018-04-08T03:34:44.564Z,1002.2
2018-04-08T03:35:10.709Z,1002.21
2018-04-08T03:35:36.876Z,1002.22
2018-04-08T03:36:03.009Z,1002.22
2018-04-08T03:36:29.148Z,1002.17
2018-04-08T03:36:55.308Z,1002.16
2018-04-08T03:37:21.471Z,1002.21
2018-04-08T03:37:47.615Z,1002.15
2018-04-08T03:38:13.783Z,1002.19
2018-04-08T03:38:39.934Z,1002.16
2018-04-08T03:39:06.087Z,1002.14
2018-04-08T03:39:32.225Z,1002.15
2018-04-08T03:39:58.358Z,1002.15
2018-04-08T03:40:24.503Z,1002.16
2018-04-08T03:40:50.644Z,1002.1
2018-04-08T03:41:16.784Z,1002.12
2018-04-08T03:41:42.916Z,1002.11
2018-04-08T03:42:09.104Z,1002.11
2018-04-08T03:42:35.249Z,1002.08
2018-04-08T03:43:01.382Z,1002.11
2018-04-08T03:43:27.519Z,1002.09
2018-04-08T03:43:53.661Z,1002.07
2018-04-08T03:44:19.798Z,1002.1
2018-04-08T03:44:45.941Z,1002.06
2018-04-08T03:45:12.082Z,1002.11
2018-04-08T03:45:38.215Z,1002.08
2018-04-08T03:46:04.352Z,1002.09
2018-04-08T03:46:30.496Z,1002.03
2018-04-08T03:46:56.638Z,1002.05
2018-04-08T03:47:22.775Z,1002.08
2018-04-08T03:47:48.909Z,1002.09
2018-04-08T03:48:15.090Z,1002.05
2018-04-08T03:48:41.241Z,1002.08
2018-04-08T03:49:07.377Z,1002.1
2018-04-08T03:49:33.514Z,1002.1
2018-04-08T03:49:59.657Z,1002.11
2018-04-08T03:50:25.794Z,1002.11
2018-04-08T03:50:51.929Z,1002.13
2018-04-08T03:51:18.068Z,1002.1
2018-04-08T03:51:44.208Z,1002.06
2018-04-08T03:52:10.345Z,1002.09
2018-04-08T03:52:36.480Z,1002.08
2018-04-08T03:53:02.631Z,1002.07
2018-04-08T03:53:28.780Z,1002.09
2018-04-08T03:53:54.917Z,1002.11
2018-04-08T03:54:21.053Z,1002.05
2018-04-08T03:54:47.191Z,1002.08
2018-04-08T03:55:13.334Z,1002.1
2018-04-08T03:55:39.494Z,1002.09
2018-04-08T03:56:05.635Z,1002.09
2018-04-08T03:56:31.770Z,1002.1
2018-04-08T03:56:57.909Z,1002.06
2018-04-08T03:57:24.048Z,1002.08
2018-04-08T03:57:50.266Z,1002.11
2018-04-08T03:58:16.352Z,1002.07
2018-04-08T03:58:42.498Z,1002.08
2018-04-08T03:59:08.633Z,1002.08
2018-04-08T03:59:34.770Z,1002.06
2018-04-08T04:00:00.906Z,1002.1
2018-04-08T04:00:27.045Z,1002.12
2018-04-08T04:00:53.183Z,1002.1
2018-04-08T04:01:19.342Z,1002.06
2018-04-08T04:01:45.485Z,1002.13
2018-04-08T04:02:11.620Z,1002.16
2018-04-08T04:02:37.761Z,1002.12
2018-04-08T04:03:03.896Z,1002.11
2018-04-08T04:03:30.039Z,1002.16
2018-04-08T04:03:56.184Z,1002.13
2018-04-08T04:04:22.326Z,1002.11
2018-04-08T04:04:48.457Z,1002.13
2018-04-08T04:05:14.593Z,1002.12
2018-04-08T04:05:40.777Z,1002.14
2018-04-08T04:06:06.920Z,1002.15
2018-04-08T04:06:33.055Z,1002.16
2018-04-08T04:06:59.195Z,1002.12
2018-04-08T04:07:25.337Z,1002.12
2018-04-08T04:07:51.474Z,1002.14
2018-04-08T04:08:17.631Z,1002.16
2018-04-08T04:08:43.776Z,1002.14
2018-04-08T04:09:09.913Z,1002.14
2018-04-08T04:09:36.052Z,1002.14
2018-04-08T04:10:02.185Z,1002.14
2018-04-08T04:10:28.321Z,1002.12
2018-04-08T04:10:54.492Z,1002.12
2018-04-08T04:11:20.622Z,1002.11
2018-04-08T04:11:46.768Z,1002.14
2018-04-08T04:12:12.909Z,1002.1
2018-04-08T04:12:39.049Z,1002.11
2018-04-08T04:13:05.186Z,1002.12
2018-04-08T04:13:31.322Z,1002.1
2018-04-08T04:13:57.461Z,1002.15
2018-04-08T04:14:23.599Z,1002.12
2018-04-08T04:14:49.741Z,1002.13
2018-04-08T04:15:15.873Z,1002.15
2018-04-08T04:15:42.015Z,1002.09
2018-04-08T04:16:08.150Z,1002.07
2018-04-08T04:16:34.292Z,1002.09
2018-04-08T04:17:00.428Z,1002.07
2018-04-08T04:17:26.569Z,1002.06
2018-04-08T04:17:52.705Z,1002.09
2018-04-08T04:18:18.844Z,1002.06
2018-04-08T04:18:44.996Z,1002.05
2018-04-08T04:19:11.117Z,1002.06
2018-04-08T04:19:37.256Z,1002.03
2018-04-08T04:20:03.391Z,1002.03
2018-04-08T04:20:29.528Z,1002.03
2018-04-08T04:20:55.673Z,1002.03
2018-04-08T04:21:21.811Z,1002.02
2018-04-08T04:21:47.945Z,1002.01
2018-04-08T04:22:14.081Z,1002.03
2018-04-08T04:22:40.247Z,1002
2018-04-08T04:23:06.388Z,1002
2018-04-08T04:23:32.549Z,1002.02
2018-04-08T04:23:58.698Z,1001.98
2018-04-08T04:24:24.833Z,1002.01
2018-04-08T04:24:50.970Z,1002.03
2018-04-08T04:25:17.108Z,1001.96
2018-04-08T04:25:43.243Z,1001.99
2018-04-08T04:26:09.378Z,1002.01
2018-04-08T04:26:35.523Z,1001.99
2018-04-08T04:27:01.664Z,1002
2018-04-08T04:27:27.801Z,1002
2018-04-08T04:27:53.933Z,1002.01
2018-04-08T04:28:20.076Z,1001.98
2018-04-08T04:28:46.237Z,1001.98
2018-04-08T04:29:12.378Z,1002
2018-04-08T04:29:38.541Z,1001.98
2018-04-08T04:30:04.677Z,1001.98
2018-04-08T04:30:30.817Z,1001.98
2018-04-08T04:30:56.947Z,1001.97
2018-04-08T04:31:23.089Z,1001.98
2018-04-08T04:31:49.228Z,1002
2018-04-08T04:32:15.366Z,1001.96
2018-04-08T04:32:41.500Z,1001.98
2018-04-08T04:33:07.671Z,1001.97
2018-04-08T04:33:33.810Z,1002
2018-04-08T04:33:59.946Z,1002
2018-04-08T04:34:26.090Z,1001.96
2018-04-08T04:34:52.227Z,1001.97
2018-04-08T04:35:18.391Z,1001.99
2018-04-08T04:35:44.559Z,1001.97
2018-04-08T04:36:10.695Z,1001.96
2018-04-08T04:36:36.829Z,1001.96
2018-04-08T04:37:02.968Z,1001.96
2018-04-08T04:37:29.111Z,1001.97
2018-04-08T04:37:55.249Z,1001.99
2018-04-08T04:38:21.396Z,1001.92
2018-04-08T04:38:47.533Z,1001.92
2018-04-08T04:39:13.676Z,1001.98
2018-04-08T04:39:39.810Z,1001.95
2018-04-08T04:40:05.953Z,1001.95
2018-04-08T04:40:32.087Z,1001.94
2018-04-08T04:40:58.250Z,1001.95
2018-04-08T04:41:24.385Z,1001.94
2018-04-08T04:41:50.528Z,1001.95
2018-04-08T04:42:16.669Z,1001.96
2018-04-08T04:42:42.802Z,1001.98
2018-04-08T04:43:08.938Z,1001.98
2018-04-08T04:43:35.078Z,1001.99
2018-04-08T04:44:01.239Z,1001.99
2018-04-08T04:44:27.377Z,1001.96
2018-04-08T04:44:53.512Z,1002.01
2018-04-08T04:45:19.656Z,1001.99
2018-04-08T04:45:45.811Z,1002.01
2018-04-08T04:46:11.970Z,1001.97
2018-04-08T04:46:38.113Z,1002.01
2018-04-08T04:47:04.252Z,1001.99
2018-04-08T04:47:30.387Z,1001.99
2018-04-08T04:47:56.527Z,1001.98
2018-04-08T04:48:22.662Z,1001.96
2018-04-08T04:48:48.808Z,1001.98
2018-04-08T04:49:14.963Z,1001.97
2018-04-08T04:49:41.133Z,1002.01
2018-04-08T04:50:07.270Z,1001.98
2018-04-08T04:50:33.405Z,1001.97
2018-04-08T04:50:59.548Z,1001.98
2018-04-08T04:51:25.688Z,1001.95
2018-04-08T04:51:51.828Z,1002.02
2018-04-08T04:52:17.970Z,1002.02
2018-04-08T04:52:44.107Z,1001.98
2018-04-08T04:53:10.242Z,1002.01
2018-04-08T04:53:36.387Z,1002.04
2018-04-08T04:54:02.523Z,1002.02
2018-04-08T04:54:28.667Z,1002.06
2018-04-08T04:54:54.799Z,1002.02
2018-04-08T04:55:20.943Z,1002.05
2018-04-08T04:55:47.084Z,1002.01
2018-04-08T04:56:13.246Z,1002.02
2018-04-08T04:56:39.384Z,1002.03
2018-04-08T04:57:05.519Z,1002
2018-04-08T04:57:31.661Z,1002.05
2018-04-08T04:57:57.795Z,1002.02
2018-04-08T04:58:23.932Z,1002.03
2018-04-08T04:58:50.076Z,1002.02
2018-04-08T04:59:16.212Z,1002.01
2018-04-08T04:59:42.348Z,1002
2018-04-08T05:00:08.488Z,1001.99
2018-04-08T05:00:34.628Z,1002.04
2018-04-08T05:01:00.770Z,1002
2018-04-08T05:01:26.905Z,1002.03
2018-04-08T05:01:53.053Z,1002
2018-04-08T05:02:19.180Z,1002
2018-04-08T05:02:45.325Z,1002.03
2018-04-08T05:03:11.463Z,1002.01
2018-04-08T05:03:37.603Z,1002
2018-04-08T05:04:03.735Z,1001.99
2018-04-08T05:04:29.879Z,1002.01
2018-04-08T05:04:56.016Z,1001.97
2018-04-08T05:05:22.151Z,1002.01
2018-04-08T05:05:48.288Z,1001.93
2018-04-08T05:06:14.427Z,1001.93
2018-04-08T05:06:40.590Z,1001.97
2018-04-08T05:07:06.736Z,1001.99
2018-04-08T05:07:32.862Z,1001.98
2018-04-08T05:07:59.007Z,1001.97
2018-04-08T05:08:25.159Z,1001.95
2018-04-08T05:08:51.310Z,1001.96
2018-04-08T05:09:17.468Z,1001.97
2018-04-08T05:09:43.616Z,1001.97
2018-04-08T05:10:09.744Z,1001.96
2018-04-08T05:10:35.891Z,1001.95
2018-04-08T05:11:02.028Z,1001.95
2018-04-08T05:11:28.161Z,1001.98
2018-04-08T05:11:54.305Z,1001.95
2018-04-08T05:12:20.446Z,1001.95
2018-04-08T05:12:46.584Z,1001.95
2018-04-08T05:13:12.723Z,1001.94
2018-04-08T05:13:38.863Z,1001.98
2018-04-08T05:14:04.995Z,1001.96
2018-04-08T05:14:31.132Z,1001.96
2018-04-08T05:14:57.276Z,1001.94
2018-04-08T05:15:23.416Z,1001.96
2018-04-08T05:15:49.545Z,1001.93
2018-04-08T05:16:15.684Z,1001.94
2018-04-08T05:16:41.849Z,1001.93
2018-04-08T05:17:07.983Z,1001.95
2018-04-08T05:17:34.129Z,1001.92